createdAt,value
2023-05-19T00:01:20.827Z,26.80
2023-05-19T00:03:55.917Z,26.90
2023-05-19T00:06:28.445Z,27.00
2023-05-19T00:09:07.265Z,27.00
2023-05-19T00:11:41.112Z,27.10
2023-05-19T00:14:12.727Z,27.10
2023-05-19T00:16:43.914Z,27.20
2023-05-19T00:19:14.023Z,27.30
2023-05-19T00:21:43.699Z,27.30
2023-05-19T00:24:13.252Z,27.40
2023-05-19T00:26:43.021Z,27.50
2023-05-19T00:29:12.756Z,27.60
2023-05-19T00:31:42.376Z,27.70
2023-05-19T00:34:12.385Z,27.80
2023-05-19T00:36:42.732Z,27.80
2023-05-19T00:39:12.708Z,28.00
2023-05-19T00:41:42.492Z,28.00
2023-05-19T00:44:12.124Z,28.10
2023-05-19T00:46:43.052Z,28.30
2023-05-19T00:49:13.077Z,28.40
2023-05-19T00:51:43.507Z,28.50
2023-05-19T00:54:13.170Z,28.70
2023-05-19T00:56:42.959Z,28.80
2023-05-19T00:59:15.792Z,28.90
2023-05-19T01:01:47.411Z,29.00
2023-05-19T01:04:21.768Z,29.10
2023-05-19T01:06:56.535Z,29.20
2023-05-19T01:09:29.684Z,29.30
2023-05-19T01:12:01.801Z,29.40
2023-05-19T01:14:32.187Z,29.50
2023-05-19T01:17:29.306Z,29.50
2023-05-19T01:20:15.214Z,29.60
2023-05-19T01:23:25.651Z,29.70
2023-05-19T01:26:25.233Z,29.80
2023-05-19T01:29:34.015Z,29.80
2023-05-19T01:32:06.244Z,29.90
2023-05-19T01:34:39.915Z,29.90
2023-05-19T01:37:10.927Z,30.00
2023-05-19T01:39:42.009Z,30.10
2023-05-19T01:42:12.512Z,30.20
2023-05-19T01:44:42.414Z,30.30
2023-05-19T01:47:12.832Z,30.30
2023-05-19T01:49:42.667Z,30.40
2023-05-19T01:52:12.341Z,30.40
2023-05-19T01:54:41.958Z,30.50
2023-05-19T01:57:26.380Z,30.50
2023-05-19T02:00:35.327Z,30.60
2023-05-19T02:03:34.083Z,30.70
2023-05-19T02:06:27.427Z,30.70
2023-05-19T02:09:10.247Z,30.80
2023-05-19T02:11:56.861Z,30.80
2023-05-19T02:14:47.357Z,30.90
2023-05-19T02:17:18.305Z,30.90
2023-05-19T02:19:48.273Z,31.00
2023-05-19T02:22:17.924Z,31.10
2023-05-19T02:24:49.401Z,31.10
2023-05-19T02:27:19.942Z,31.10
2023-05-19T02:29:49.529Z,31.10
2023-05-19T02:32:19.784Z,31.20
2023-05-19T02:34:49.988Z,31.30
2023-05-19T02:37:20.336Z,31.30
2023-05-19T02:39:49.922Z,31.40
2023-05-19T02:42:20.044Z,31.40
2023-05-19T02:44:49.578Z,31.50
2023-05-19T02:47:19.206Z,31.50
2023-05-19T02:49:48.848Z,31.60
2023-05-19T02:52:18.442Z,31.60
2023-05-19T02:54:48.092Z,31.70
2023-05-19T02:57:17.875Z,31.80
2023-05-19T02:59:47.511Z,31.80
2023-05-19T03:02:17.151Z,31.90
2023-05-19T03:04:47.306Z,32.00
2023-05-19T03:07:17.241Z,32.10
2023-05-19T03:09:46.771Z,32.10
2023-05-19T03:12:16.416Z,32.20
2023-05-19T03:14:46.029Z,32.30
2023-05-19T03:17:15.623Z,32.40
2023-05-19T03:19:45.296Z,32.50
2023-05-19T03:22:15.004Z,32.60
2023-05-19T03:24:44.622Z,32.70
2023-05-19T03:27:15.161Z,32.70
2023-05-19T03:29:44.808Z,32.90
2023-05-19T03:32:14.430Z,32.90
2023-05-19T03:34:45.925Z,33.10
2023-05-19T03:37:15.593Z,33.10
2023-05-19T03:39:45.251Z,33.20
2023-05-19T03:42:14.950Z,33.30
2023-05-19T03:44:47.763Z,33.40
2023-05-19T03:47:17.696Z,33.50
2023-05-19T03:49:47.319Z,33.50
2023-05-19T03:52:17.381Z,33.60
2023-05-19T03:54:47.061Z,33.60
2023-05-19T03:57:17.220Z,33.70
2023-05-19T03:59:46.967Z,33.80
2023-05-19T04:02:16.818Z,33.80
2023-05-19T04:04:46.635Z,33.90
2023-05-19T04:07:16.296Z,33.90
2023-05-19T04:09:46.735Z,34.00
2023-05-19T04:12:19.112Z,34.10
2023-05-19T04:14:48.695Z,34.10
2023-05-19T04:17:18.274Z,34.20
2023-05-19T04:19:47.930Z,34.20
2023-05-19T04:22:17.575Z,34.30
2023-05-19T04:24:48.162Z,34.30
2023-05-19T04:27:19.430Z,34.40
2023-05-19T04:29:49.955Z,34.50
2023-05-19T04:32:19.533Z,34.50
2023-05-19T04:34:49.104Z,34.60
2023-05-19T04:37:21.601Z,34.70
2023-05-19T04:39:51.778Z,34.70
2023-05-19T04:42:21.371Z,34.80
2023-05-19T04:44:53.983Z,34.80
2023-05-19T04:47:23.793Z,34.90
2023-05-19T04:49:57.204Z,34.90
2023-05-19T04:52:29.346Z,35.00
2023-05-19T04:54:59.070Z,35.10
2023-05-19T04:57:28.640Z,35.20
2023-05-19T05:00:01.665Z,35.20
2023-05-19T05:02:31.309Z,35.30
2023-05-19T05:05:01.109Z,35.40
2023-05-19T05:07:32.228Z,35.40
2023-05-19T05:10:02.071Z,35.40
2023-05-19T05:12:31.947Z,35.50
2023-05-19T05:15:02.051Z,35.50
2023-05-19T05:17:32.449Z,35.50
2023-05-19T05:20:02.417Z,35.50
2023-05-19T05:22:32.413Z,35.50
2023-05-19T05:25:02.990Z,35.50
2023-05-19T05:27:33.005Z,35.50
2023-05-19T05:30:02.674Z,35.60
2023-05-19T05:32:32.505Z,35.60
2023-05-19T05:35:02.373Z,35.70
2023-05-19T05:37:32.798Z,35.80
2023-05-19T05:40:03.133Z,35.80
2023-05-19T05:42:32.823Z,35.90
2023-05-19T05:45:02.360Z,35.90
2023-05-19T05:47:34.846Z,36.00
2023-05-19T05:50:05.350Z,36.00
2023-05-19T05:52:35.902Z,36.00
2023-05-19T05:55:06.743Z,36.00
2023-05-19T05:57:39.395Z,36.00
2023-05-19T06:00:17.069Z,36.00
2023-05-19T06:02:52.158Z,36.00
2023-05-19T06:05:22.051Z,35.90
2023-05-19T06:07:51.693Z,35.90
2023-05-19T06:10:27.765Z,35.90
2023-05-19T06:12:57.710Z,36.00
2023-05-19T06:15:27.426Z,36.00
2023-05-19T06:17:57.097Z,36.00
2023-05-19T06:20:26.939Z,36.00
2023-05-19T06:22:56.494Z,36.10
2023-05-19T06:25:26.408Z,36.10
2023-05-19T06:27:56.239Z,36.20
2023-05-19T06:30:25.930Z,36.20
2023-05-19T06:32:55.541Z,36.30
2023-05-19T06:35:25.105Z,36.30
2023-05-19T06:37:54.884Z,36.30
2023-05-19T06:40:28.685Z,36.30
2023-05-19T06:42:58.311Z,36.30
2023-05-19T06:45:28.190Z,36.40
2023-05-19T06:48:00.024Z,36.40
2023-05-19T06:50:29.866Z,36.50
2023-05-19T06:53:00.038Z,36.50
2023-05-19T06:55:33.509Z,36.60
2023-05-19T06:58:04.149Z,36.60
2023-05-19T07:00:34.153Z,36.70
2023-05-19T07:03:04.045Z,36.80
2023-05-19T07:05:33.721Z,36.90
2023-05-19T07:08:03.457Z,36.90
2023-05-19T07:10:33.254Z,36.90
2023-05-19T07:13:03.154Z,36.80
2023-05-19T07:15:35.449Z,36.80
2023-05-19T07:18:05.094Z,36.80
2023-05-19T07:20:35.014Z,36.80
2023-05-19T07:23:04.761Z,36.90
2023-05-19T07:25:34.991Z,36.80
2023-05-19T07:28:04.578Z,36.80
2023-05-19T07:30:34.536Z,36.80
2023-05-19T07:33:04.451Z,36.80
2023-05-19T07:35:34.128Z,36.90
2023-05-19T07:38:04.072Z,36.80
2023-05-19T07:40:37.426Z,36.90
2023-05-19T07:43:07.405Z,36.80
2023-05-19T07:45:37.043Z,36.80
2023-05-19T07:48:06.841Z,36.70
2023-05-19T07:50:36.529Z,36.70
2023-05-19T07:53:14.737Z,36.70
2023-05-19T07:55:44.430Z,36.70
2023-05-19T07:58:14.160Z,36.70
2023-05-19T08:00:47.713Z,36.70
2023-05-19T08:03:19.505Z,36.70
2023-05-19T08:05:49.293Z,36.70
2023-05-19T08:08:21.665Z,36.70
2023-05-19T08:10:51.292Z,36.70
2023-05-19T08:13:20.868Z,36.80
2023-05-19T08:15:50.603Z,36.70
2023-05-19T08:18:22.343Z,36.70
2023-05-19T08:20:52.134Z,36.70
2023-05-19T08:23:21.853Z,36.70
2023-05-19T08:25:53.294Z,36.60
2023-05-19T08:28:23.157Z,36.60
2023-05-19T08:30:54.704Z,36.50
2023-05-19T08:33:26.418Z,36.40
2023-05-19T08:35:59.253Z,36.40
2023-05-19T08:38:29.335Z,36.40
2023-05-19T08:41:00.314Z,36.40
2023-05-19T08:43:33.597Z,36.30
2023-05-19T08:46:05.537Z,36.20
2023-05-19T08:48:37.113Z,36.20
2023-05-19T08:51:35.706Z,36.20
2023-05-19T08:54:17.468Z,36.20
2023-05-19T08:56:48.181Z,36.10
2023-05-19T08:59:19.230Z,36.10
2023-05-19T09:01:49.659Z,36.00
2023-05-19T09:04:19.735Z,36.00
2023-05-19T09:06:49.994Z,36.00
2023-05-19T09:09:19.676Z,36.00
2023-05-19T09:11:51.665Z,35.90
2023-05-19T09:14:21.243Z,35.90
2023-05-19T09:16:54.049Z,35.80
2023-05-19T09:19:24.364Z,35.80
2023-05-19T09:22:08.023Z,35.70
2023-05-19T09:24:37.736Z,35.70
2023-05-19T09:27:07.528Z,35.60
2023-05-19T09:29:37.263Z,35.60
2023-05-19T09:32:07.732Z,35.60
2023-05-19T09:34:43.356Z,35.50
2023-05-19T09:37:18.686Z,35.50
2023-05-19T09:39:52.644Z,35.50
2023-05-19T09:42:31.486Z,35.60
2023-05-19T09:45:05.221Z,35.50
2023-05-19T09:47:42.927Z,35.50
2023-05-19T09:50:15.744Z,35.50
2023-05-19T09:52:48.510Z,35.50
2023-05-19T09:55:18.442Z,35.40
2023-05-19T09:57:48.192Z,35.30
2023-05-19T10:00:19.726Z,35.30
2023-05-19T10:02:56.055Z,35.10
2023-05-19T10:05:26.387Z,35.10
2023-05-19T10:07:57.272Z,35.00
2023-05-19T10:10:27.606Z,35.00
2023-05-19T10:12:57.588Z,34.80
2023-05-19T10:15:33.049Z,34.80
2023-05-19T10:18:06.812Z,34.70
2023-05-19T10:20:37.997Z,34.70
2023-05-19T10:23:10.161Z,34.60
2023-05-19T10:25:40.686Z,34.60
2023-05-19T10:28:17.145Z,34.50
2023-05-19T10:30:52.736Z,34.50
2023-05-19T10:33:24.738Z,34.40
2023-05-19T10:36:24.744Z,34.40
2023-05-19T10:39:02.772Z,34.30
2023-05-19T10:41:49.307Z,34.30
2023-05-19T10:44:42.747Z,34.30
2023-05-19T10:47:13.676Z,34.20
2023-05-19T10:49:43.418Z,34.10
2023-05-19T10:52:35.267Z,34.00
2023-05-19T10:55:06.570Z,34.00
2023-05-19T10:57:36.381Z,33.90
2023-05-19T11:00:27.236Z,33.80
2023-05-19T11:03:15.146Z,33.80
2023-05-19T11:05:48.248Z,33.70
2023-05-19T11:08:19.564Z,33.70
2023-05-19T11:10:49.229Z,33.70
2023-05-19T11:13:23.383Z,33.70
2023-05-19T11:15:53.950Z,33.60
2023-05-19T11:18:23.588Z,33.60
2023-05-19T11:21:03.863Z,33.50
2023-05-19T11:23:39.831Z,33.50
2023-05-19T11:26:10.875Z,33.40
2023-05-19T11:28:41.780Z,33.30
2023-05-19T11:31:12.080Z,33.10
2023-05-19T11:33:42.269Z,32.90
2023-05-19T11:36:15.509Z,32.70
2023-05-19T11:38:45.265Z,32.60
2023-05-19T11:41:19.516Z,32.50
2023-05-19T11:43:50.616Z,32.50
2023-05-19T11:46:20.939Z,32.50
2023-05-19T11:48:50.550Z,32.50
2023-05-19T11:51:22.927Z,32.60
2023-05-19T11:53:53.353Z,32.60
2023-05-19T11:56:25.910Z,32.60
2023-05-19T11:58:56.305Z,32.60
2023-05-19T12:01:28.666Z,32.60
2023-05-19T12:03:58.392Z,32.60
2023-05-19T12:06:31.904Z,32.60
2023-05-19T12:09:01.705Z,32.60
2023-05-19T12:11:31.534Z,32.70
2023-05-19T12:14:04.472Z,32.60
2023-05-19T12:16:37.791Z,32.70
2023-05-19T12:19:11.284Z,32.70
2023-05-19T12:21:41.420Z,32.70
2023-05-19T12:24:11.650Z,32.70
2023-05-19T12:26:42.625Z,32.80
2023-05-19T12:29:12.280Z,32.80
2023-05-19T12:31:42.092Z,32.70
2023-05-19T12:34:14.858Z,32.70
2023-05-19T12:36:44.695Z,32.70
2023-05-19T12:39:16.284Z,32.70
2023-05-19T12:41:48.392Z,32.60
2023-05-19T12:44:20.643Z,32.70
2023-05-19T12:46:56.938Z,32.60
2023-05-19T12:49:26.621Z,32.60
2023-05-19T12:51:56.903Z,32.50
2023-05-19T12:54:26.618Z,32.50
2023-05-19T12:56:56.443Z,32.40
2023-05-19T12:59:38.398Z,32.30
2023-05-19T13:02:20.005Z,32.20
2023-05-19T13:04:50.099Z,32.10
2023-05-19T13:07:20.320Z,32.00
2023-05-19T13:09:49.969Z,32.00
2023-05-19T13:12:22.639Z,31.90
2023-05-19T13:14:53.503Z,31.80
2023-05-19T13:17:25.256Z,31.80
2023-05-19T13:19:54.934Z,31.70
2023-05-19T13:22:24.601Z,31.70
2023-05-19T13:24:54.951Z,31.70
2023-05-19T13:27:26.365Z,31.70
2023-05-19T13:29:56.027Z,31.70
2023-05-19T13:32:25.869Z,31.60
2023-05-19T13:34:55.450Z,31.50
2023-05-19T13:37:25.593Z,31.50
2023-05-19T13:39:55.658Z,31.40
2023-05-19T13:42:25.520Z,31.40
2023-05-19T13:44:58.725Z,31.30
2023-05-19T13:47:28.843Z,31.30
2023-05-19T13:49:58.945Z,31.20
2023-05-19T13:52:30.492Z,31.20
2023-05-19T13:55:00.416Z,31.20
2023-05-19T13:57:30.113Z,31.20
2023-05-19T14:00:03.445Z,31.20
2023-05-19T14:02:35.893Z,31.20
2023-05-19T14:05:06.212Z,31.20
2023-05-19T14:07:36.579Z,31.30
2023-05-19T14:10:08.453Z,31.30
2023-05-19T14:12:55.169Z,31.30
2023-05-19T14:15:29.076Z,31.30
2023-05-19T14:18:00.627Z,31.30
2023-05-19T14:20:30.326Z,31.30
2023-05-19T14:23:02.832Z,31.30
2023-05-19T14:25:32.530Z,31.30
2023-05-19T14:28:05.200Z,31.30
2023-05-19T14:30:37.319Z,31.30
2023-05-19T14:33:07.041Z,31.30
2023-05-19T14:35:36.759Z,31.40
2023-05-19T14:38:06.367Z,31.30
2023-05-19T14:40:38.351Z,31.20
2023-05-19T14:43:07.891Z,31.10
2023-05-19T14:45:37.680Z,31.00
2023-05-19T14:48:08.106Z,30.80
2023-05-19T14:50:37.683Z,30.60
2023-05-19T14:53:07.651Z,30.40
2023-05-19T14:55:37.247Z,30.30
2023-05-19T14:58:15.841Z,30.10
2023-05-19T15:00:50.403Z,30.10
2023-05-19T15:03:19.999Z,30.00
2023-05-19T15:05:53.913Z,29.80
2023-05-19T15:08:23.620Z,29.80
2023-05-19T15:10:55.656Z,29.70
2023-05-19T15:13:25.293Z,29.60
2023-05-19T15:16:12.516Z,29.50
2023-05-19T15:18:48.123Z,29.50
2023-05-19T15:21:17.835Z,29.50
2023-05-19T15:23:47.631Z,29.40
2023-05-19T15:26:19.953Z,29.40
2023-05-19T15:28:49.626Z,29.40
2023-05-19T15:31:19.732Z,29.40
2023-05-19T15:33:49.314Z,29.40
2023-05-19T15:36:20.793Z,29.40
2023-05-19T15:38:50.548Z,29.50
2023-05-19T15:41:20.177Z,29.40
2023-05-19T15:43:49.850Z,29.40
2023-05-19T15:46:21.310Z,29.40
2023-05-19T15:48:51.003Z,29.30
2023-05-19T15:51:20.713Z,29.20
2023-05-19T15:53:50.356Z,29.20
2023-05-19T15:56:21.118Z,29.20
2023-05-19T15:58:53.124Z,29.10
2023-05-19T16:01:23.426Z,29.20
2023-05-19T16:03:53.221Z,29.10
2023-05-19T16:06:22.971Z,29.10
2023-05-19T16:08:52.590Z,29.10
2023-05-19T16:11:26.620Z,29.10
2023-05-19T16:13:56.235Z,29.10
2023-05-19T16:16:25.988Z,29.10
2023-05-19T16:18:55.605Z,29.10
2023-05-19T16:21:25.272Z,29.10
2023-05-19T16:23:54.909Z,29.10
2023-05-19T16:26:24.539Z,29.20
2023-05-19T16:28:54.367Z,29.10
2023-05-19T16:31:24.031Z,29.10
2023-05-19T16:33:53.644Z,29.10
2023-05-19T16:36:24.442Z,29.10
2023-05-19T16:38:55.086Z,29.10
2023-05-19T16:41:27.308Z,29.10
2023-05-19T16:43:57.029Z,29.10
2023-05-19T16:46:27.842Z,29.10
2023-05-19T16:48:58.701Z,29.10
2023-05-19T16:51:28.370Z,29.10
2023-05-19T16:53:58.070Z,29.10
2023-05-19T16:56:27.648Z,29.10
2023-05-19T16:58:57.483Z,29.10
2023-05-19T17:01:27.132Z,29.10
2023-05-19T17:03:59.405Z,29.20
2023-05-19T17:06:29.138Z,29.20
2023-05-19T17:08:58.763Z,29.20
2023-05-19T17:11:29.212Z,29.20
2023-05-19T17:13:58.833Z,29.20
2023-05-19T17:16:28.556Z,29.20
2023-05-19T17:18:58.166Z,29.20
2023-05-19T17:21:27.923Z,29.20
2023-05-19T17:23:57.775Z,29.30
2023-05-19T17:26:28.152Z,29.30
2023-05-19T17:28:57.850Z,29.30
2023-05-19T17:31:27.889Z,29.30
2023-05-19T17:33:57.473Z,29.30
2023-05-19T17:36:27.777Z,29.30
2023-05-19T17:39:00.529Z,29.30
2023-05-19T17:41:30.218Z,29.30
2023-05-19T17:43:59.922Z,29.30
2023-05-19T17:46:31.792Z,29.30
2023-05-19T17:49:01.515Z,29.30
2023-05-19T17:51:31.395Z,29.30
2023-05-19T17:54:01.520Z,29.20
2023-05-19T17:56:34.949Z,29.20
2023-05-19T17:59:04.786Z,29.30
2023-05-19T18:01:35.329Z,29.20
2023-05-19T18:04:05.649Z,29.30
2023-05-19T18:06:36.905Z,29.30
2023-05-19T18:09:10.573Z,29.30
2023-05-19T18:11:40.102Z,29.20
2023-05-19T18:14:09.860Z,29.20
2023-05-19T18:16:39.755Z,29.20
2023-05-19T18:19:09.386Z,29.10
2023-05-19T18:21:39.035Z,29.00
2023-05-19T18:24:08.895Z,28.90
2023-05-19T18:26:43.324Z,28.90
2023-05-19T18:29:13.528Z,28.80
2023-05-19T18:31:44.372Z,28.80
2023-05-19T18:34:15.623Z,28.80
2023-05-19T18:36:45.255Z,28.80
2023-05-19T18:39:15.068Z,28.70
2023-05-19T18:41:44.622Z,28.70
2023-05-19T18:44:14.508Z,28.70
2023-05-19T18:46:44.197Z,28.60
2023-05-19T18:49:13.893Z,28.70
2023-05-19T18:51:43.712Z,28.60
2023-05-19T18:54:14.097Z,28.60
2023-05-19T18:56:44.048Z,28.70
2023-05-19T18:59:13.672Z,28.60
2023-05-19T19:01:44.476Z,28.60
2023-05-19T19:04:16.359Z,28.70
2023-05-19T19:06:46.087Z,28.70
2023-05-19T19:09:16.182Z,28.70
2023-05-19T19:11:45.952Z,28.70
2023-05-19T19:14:15.604Z,28.70
2023-05-19T19:16:45.295Z,28.70
2023-05-19T19:19:15.098Z,28.70
2023-05-19T19:21:45.007Z,28.70
2023-05-19T19:24:15.438Z,28.70
2023-05-19T19:26:45.153Z,28.70
2023-05-19T19:29:19.839Z,28.70
2023-05-19T19:31:49.587Z,28.70
2023-05-19T19:34:21.458Z,28.70
2023-05-19T19:36:54.921Z,28.60
2023-05-19T19:39:24.570Z,28.50
2023-05-19T19:41:54.286Z,28.50
2023-05-19T19:44:27.116Z,28.40
2023-05-19T19:46:56.762Z,28.40
2023-05-19T19:49:26.370Z,28.40
2023-05-19T19:51:56.028Z,28.40
2023-05-19T19:54:28.151Z,28.40
2023-05-19T19:56:57.815Z,28.40
2023-05-19T19:59:27.692Z,28.40
2023-05-19T20:01:57.381Z,28.40
2023-05-19T20:04:27.119Z,28.40
2023-05-19T20:06:56.713Z,28.40
2023-05-19T20:09:26.473Z,28.40
2023-05-19T20:11:56.039Z,28.30
2023-05-19T20:14:25.795Z,28.30
2023-05-19T20:16:55.372Z,28.30
2023-05-19T20:19:30.854Z,28.40
2023-05-19T20:22:00.472Z,28.30
2023-05-19T20:24:30.133Z,28.30
2023-05-19T20:27:03.062Z,28.30
2023-05-19T20:29:35.149Z,28.20
2023-05-19T20:32:04.774Z,28.20
2023-05-19T20:34:34.436Z,28.10
2023-05-19T20:37:04.123Z,28.10
2023-05-19T20:39:33.727Z,28.00
2023-05-19T20:42:05.671Z,27.90
2023-05-19T20:44:35.284Z,27.90
2023-05-19T20:47:05.865Z,27.90
2023-05-19T20:49:35.803Z,27.90
2023-05-19T20:52:05.545Z,27.90
2023-05-19T20:54:35.280Z,27.90
2023-05-19T20:57:08.171Z,27.80
2023-05-19T20:59:38.290Z,27.80
2023-05-19T21:02:09.208Z,27.80
2023-05-19T21:04:39.558Z,27.70
2023-05-19T21:07:09.285Z,27.70
2023-05-19T21:09:39.040Z,27.70
2023-05-19T21:12:08.854Z,27.70
2023-05-19T21:14:38.529Z,27.70
2023-05-19T21:17:08.988Z,27.70
2023-05-19T21:19:39.528Z,27.70
2023-05-19T21:22:09.179Z,27.70
2023-05-19T21:24:38.904Z,27.70
2023-05-19T21:27:08.544Z,27.60
2023-05-19T21:29:38.185Z,27.60
2023-05-19T21:32:08.269Z,27.50
2023-05-19T21:34:38.029Z,27.50
2023-05-19T21:37:10.378Z,27.50
2023-05-19T21:39:42.145Z,27.50
2023-05-19T21:42:11.790Z,27.50
2023-05-19T21:44:41.592Z,27.50
2023-05-19T21:47:14.290Z,27.40
2023-05-19T21:49:43.953Z,27.50
2023-05-19T21:52:13.667Z,27.50
2023-05-19T21:54:43.327Z,27.50
2023-05-19T21:57:14.166Z,27.50
2023-05-19T21:59:43.747Z,27.50
2023-05-19T22:02:13.442Z,27.50
2023-05-19T22:04:44.589Z,27.50
2023-05-19T22:07:14.342Z,27.50
2023-05-19T22:09:44.097Z,27.50
2023-05-19T22:12:13.740Z,27.50
2023-05-19T22:14:43.636Z,27.50
2023-05-19T22:17:13.274Z,27.60
2023-05-19T22:19:42.965Z,27.50
2023-05-19T22:22:14.176Z,27.50
2023-05-19T22:24:46.695Z,27.50
2023-05-19T22:27:16.411Z,27.50
2023-05-19T22:29:46.164Z,27.50
2023-05-19T22:32:18.450Z,27.50
2023-05-19T22:34:48.450Z,27.50
2023-05-19T22:37:18.307Z,27.50
2023-05-19T22:39:50.350Z,27.50
2023-05-19T22:42:20.322Z,27.50
2023-05-19T22:44:50.012Z,27.50
2023-05-19T22:47:19.706Z,27.40
2023-05-19T22:49:49.512Z,27.40
2023-05-19T22:52:19.425Z,27.40
2023-05-19T22:54:49.152Z,27.30
2023-05-19T22:57:19.380Z,27.20
2023-05-19T22:59:49.070Z,27.10
2023-05-19T23:02:18.798Z,27.00
2023-05-19T23:04:48.436Z,26.90
2023-05-19T23:07:18.113Z,26.80
2023-05-19T23:09:47.712Z,26.80
2023-05-19T23:12:17.277Z,26.80
2023-05-19T23:14:46.890Z,26.80
2023-05-19T23:17:16.463Z,26.70
2023-05-19T23:19:46.118Z,26.80
2023-05-19T23:22:17.814Z,26.80
2023-05-19T23:24:47.639Z,26.70
2023-05-19T23:27:17.305Z,26.80
2023-05-19T23:29:50.900Z,26.80
2023-05-19T23:32:20.585Z,26.70
2023-05-19T23:34:50.526Z,26.70
2023-05-19T23:37:20.206Z,26.70
2023-05-19T23:39:49.860Z,26.70
2023-05-19T23:42:20.350Z,26.70
2023-05-19T23:44:50.078Z,26.70
2023-05-19T23:47:19.738Z,26.70
2023-05-19T23:49:50.354Z,26.70
2023-05-19T23:52:23.049Z,26.70
2023-05-19T23:54:52.798Z,26.70
2023-05-19T23:57:22.334Z,26.80
2023-05-19T23:59:52.023Z,26.80
